createdAt,value
2023-01-17T00:02:22.621Z,100931.75
2023-01-17T00:05:09.088Z,100924.00
2023-01-17T00:07:55.646Z,100928.31
2023-01-17T00:10:25.864Z,100927.47
2023-01-17T00:13:02.159Z,100924.88
2023-01-17T00:15:32.222Z,100918.88
2023-01-17T00:18:00.004Z,100923.22
2023-01-17T00:20:49.250Z,100925.88
2023-01-17T00:23:43.966Z,100919.03
2023-01-17T00:26:18.197Z,100920.81
2023-01-17T00:28:46.518Z,100927.00
2023-01-17T00:31:17.952Z,100920.06
2023-01-17T00:33:45.778Z,100921.78
2023-01-17T00:36:13.676Z,100917.47
2023-01-17T00:38:41.340Z,100908.94
2023-01-17T00:41:11.892Z,100911.56
2023-01-17T00:43:58.849Z,100913.34
2023-01-17T00:46:44.968Z,100919.44
2023-01-17T00:49:31.514Z,100910.84
2023-01-17T00:52:17.766Z,100906.53
2023-01-17T00:55:03.886Z,100902.97
2023-01-17T00:57:50.529Z,100897.81
2023-01-17T01:00:37.510Z,100890.03
2023-01-17T01:03:28.805Z,100890.94
2023-01-17T01:06:14.969Z,100888.34
2023-01-17T01:09:01.238Z,100890.88
2023-01-17T01:11:47.559Z,100883.09
2023-01-17T01:14:33.828Z,100877.97
2023-01-17T01:17:19.981Z,100875.25
2023-01-17T01:20:06.117Z,100865.03
2023-01-17T01:22:52.476Z,100870.25
2023-01-17T01:25:38.500Z,100860.78
2023-01-17T01:28:30.719Z,100859.06
2023-01-17T01:31:21.355Z,100853.88
2023-01-17T01:33:50.825Z,100857.28
2023-01-17T01:36:19.829Z,100852.97
2023-01-17T01:38:47.578Z,100850.44
2023-01-17T01:41:15.123Z,100865.13
2023-01-17T01:43:51.531Z,100856.56
2023-01-17T01:46:32.103Z,100850.59
2023-01-17T01:49:05.176Z,100852.31
2023-01-17T01:51:41.576Z,100851.41
2023-01-17T01:54:20.617Z,100843.66
2023-01-17T01:56:50.141Z,100856.69
2023-01-17T01:59:21.310Z,100846.31
2023-01-17T02:01:51.566Z,100858.34
2023-01-17T02:04:21.232Z,100839.25
2023-01-17T02:06:54.054Z,100852.25
2023-01-17T02:09:22.151Z,100848.81
2023-01-17T02:11:50.365Z,100855.75
2023-01-17T02:14:19.835Z,100854.03
2023-01-17T02:17:06.099Z,100852.19
2023-01-17T02:20:21.614Z,100841.84
2023-01-17T02:23:20.069Z,100851.34
2023-01-17T02:26:05.786Z,100840.00
2023-01-17T02:29:05.914Z,100853.03
2023-01-17T02:31:47.349Z,100846.03
2023-01-17T02:34:15.244Z,100832.09
2023-01-17T02:36:49.853Z,100835.50
2023-01-17T02:39:21.976Z,100834.63
2023-01-17T02:42:02.523Z,100822.53
2023-01-17T02:44:30.243Z,100822.53
2023-01-17T02:46:59.370Z,100813.88
2023-01-17T02:49:30.435Z,100812.94
2023-01-17T02:52:18.839Z,100804.34
2023-01-17T02:55:17.129Z,100801.75
2023-01-17T02:57:59.772Z,100799.06
2023-01-17T03:00:42.634Z,100799.00
2023-01-17T03:03:31.228Z,100793.84
2023-01-17T03:06:13.813Z,100795.69
2023-01-17T03:08:47.503Z,100797.44
2023-01-17T03:11:16.627Z,100802.63
2023-01-17T03:13:44.549Z,100799.97
2023-01-17T03:16:19.690Z,100793.94
2023-01-17T03:18:47.499Z,100797.41
2023-01-17T03:21:15.338Z,100805.22
2023-01-17T03:23:44.283Z,100802.69
2023-01-17T03:26:11.782Z,100793.16
2023-01-17T03:28:39.657Z,100796.56
2023-01-17T03:31:07.298Z,100790.53
2023-01-17T03:33:35.589Z,100791.38
2023-01-17T03:36:04.883Z,100782.75
2023-01-17T03:38:33.461Z,100779.31
2023-01-17T03:41:00.950Z,100788.88
2023-01-17T03:43:28.584Z,100781.94
2023-01-17T03:46:07.414Z,100775.00
2023-01-17T03:48:35.175Z,100781.13
2023-01-17T03:51:02.747Z,100779.38
2023-01-17T03:53:30.508Z,100778.47
2023-01-17T03:55:58.051Z,100769.81
2023-01-17T03:58:26.085Z,100768.91
2023-01-17T04:00:53.923Z,100774.09
2023-01-17T04:03:22.409Z,100772.31
2023-01-17T04:05:52.024Z,100774.16
2023-01-17T04:08:19.803Z,100772.41
2023-01-17T04:10:47.492Z,100771.47
2023-01-17T04:13:16.797Z,100765.47
2023-01-17T04:15:46.205Z,100774.09
2023-01-17T04:18:14.041Z,100772.25
2023-01-17T04:20:41.587Z,100761.94
2023-01-17T04:23:09.316Z,100759.44
2023-01-17T04:25:37.277Z,100755.09
2023-01-17T04:28:05.200Z,100746.28
2023-01-17T04:30:33.594Z,100760.25
2023-01-17T04:33:01.141Z,100736.84
2023-01-17T04:35:33.565Z,100746.34
2023-01-17T04:38:01.356Z,100757.69
2023-01-17T04:40:29.701Z,100755.06
2023-01-17T04:42:58.307Z,100748.06
2023-01-17T04:45:26.029Z,100756.84
2023-01-17T04:47:53.730Z,100764.56
2023-01-17T04:50:21.267Z,100763.63
2023-01-17T04:52:48.845Z,100767.94
2023-01-17T04:55:16.441Z,100758.44
2023-01-17T04:57:43.954Z,100752.34
2023-01-17T05:00:12.098Z,100746.31
2023-01-17T05:02:40.360Z,100743.75
2023-01-17T05:05:08.867Z,100738.50
2023-01-17T05:07:36.638Z,100735.88
2023-01-17T05:10:04.690Z,100735.03
2023-01-17T05:12:32.421Z,100740.22
2023-01-17T05:15:00.461Z,100722.94
2023-01-17T05:17:28.078Z,100730.69
2023-01-17T05:19:55.653Z,100725.50
2023-01-17T05:22:23.181Z,100724.69
2023-01-17T05:24:50.714Z,100709.13
2023-01-17T05:27:18.318Z,100709.97
2023-01-17T05:29:45.947Z,100710.91
2023-01-17T05:32:13.487Z,100718.72
2023-01-17T05:34:41.079Z,100710.97
2023-01-17T05:37:08.677Z,100723.91
2023-01-17T05:39:36.708Z,100718.78
2023-01-17T05:42:05.141Z,100722.25
2023-01-17T05:44:32.645Z,100724.91
2023-01-17T05:47:00.549Z,100722.22
2023-01-17T05:49:28.121Z,100708.41
2023-01-17T05:51:55.888Z,100697.91
2023-01-17T05:54:23.378Z,100703.09
2023-01-17T05:56:50.959Z,100704.81
2023-01-17T05:59:28.568Z,100708.22
2023-01-17T06:02:03.880Z,100712.50
2023-01-17T06:04:31.620Z,100719.50
2023-01-17T06:06:59.134Z,100717.81
2023-01-17T06:09:26.725Z,100709.97
2023-01-17T06:11:54.244Z,100700.28
2023-01-17T06:14:21.967Z,100680.41
2023-01-17T06:16:50.069Z,100698.53
2023-01-17T06:19:17.777Z,100703.75
2023-01-17T06:21:45.294Z,100688.16
2023-01-17T06:24:13.371Z,100694.13
2023-01-17T06:26:43.829Z,100684.56
2023-01-17T06:29:12.441Z,100687.19
2023-01-17T06:31:40.273Z,100685.34
2023-01-17T06:34:07.956Z,100692.16
2023-01-17T06:36:35.503Z,100694.84
2023-01-17T06:39:03.036Z,100683.53
2023-01-17T06:41:31.033Z,100687.81
2023-01-17T06:43:58.673Z,100689.47
2023-01-17T06:46:26.267Z,100690.13
2023-01-17T06:48:54.019Z,100681.56
2023-01-17T06:51:21.864Z,100671.09
2023-01-17T06:53:49.721Z,100670.13
2023-01-17T06:56:17.236Z,100664.91
2023-01-17T06:58:44.838Z,100657.84
2023-01-17T07:01:13.572Z,100666.50
2023-01-17T07:03:41.755Z,100669.00
2023-01-17T07:06:09.657Z,100670.59
2023-01-17T07:08:37.705Z,100674.13
2023-01-17T07:11:10.447Z,100672.41
2023-01-17T07:13:38.671Z,100666.31
2023-01-17T07:16:08.215Z,100665.28
2023-01-17T07:18:36.544Z,100659.91
2023-01-17T07:21:04.514Z,100672.84
2023-01-17T07:23:32.205Z,100678.81
2023-01-17T07:26:00.871Z,100683.25
2023-01-17T07:28:28.591Z,100682.41
2023-01-17T07:30:56.611Z,100674.47
2023-01-17T07:33:25.465Z,100679.50
2023-01-17T07:35:56.031Z,100674.94
2023-01-17T07:38:23.554Z,100676.03
2023-01-17T07:40:51.107Z,100682.88
2023-01-17T07:43:18.595Z,100683.56
2023-01-17T07:45:51.122Z,100692.16
2023-01-17T07:48:20.700Z,100695.41
2023-01-17T07:51:00.864Z,100694.59
2023-01-17T07:53:31.373Z,100691.91
2023-01-17T07:56:07.643Z,100695.44
2023-01-17T07:58:36.444Z,100692.84
2023-01-17T08:01:13.460Z,100689.25
2023-01-17T08:03:41.539Z,100697.75
2023-01-17T08:06:18.637Z,100698.63
2023-01-17T08:08:47.501Z,100707.19
2023-01-17T08:11:15.558Z,100702.00
2023-01-17T12:35:17.056Z,100583.66
2023-01-17T12:38:00.256Z,100576.50
2023-01-17T12:40:49.683Z,100565.00
2023-01-17T12:43:33.084Z,100565.00
2023-01-17T12:46:07.633Z,100555.53
2023-01-17T12:48:39.370Z,100539.59
2023-01-17T12:51:09.422Z,100536.75
2023-01-17T12:53:44.198Z,100540.06
2023-01-17T12:56:25.189Z,100554.97
2023-01-17T12:59:07.677Z,100554.03
2023-01-17T13:01:43.324Z,100559.28
2023-01-17T13:04:28.162Z,100547.25
2023-01-17T13:06:58.731Z,100550.59
2023-01-17T13:09:39.797Z,100555.75
2023-01-17T13:12:14.464Z,100568.72
2023-01-17T13:14:47.126Z,100573.94
2023-01-17T13:17:52.109Z,100580.69
2023-01-17T13:20:31.810Z,100574.56
2023-01-17T13:23:23.742Z,100574.56
2023-01-17T13:25:51.495Z,100576.22
2023-01-17T13:28:33.808Z,100587.78
2023-01-17T13:31:05.645Z,100583.31
2023-01-17T13:34:02.779Z,100579.06
2023-01-17T13:37:09.388Z,100568.47
2023-01-17T13:40:01.292Z,100551.94
2023-01-17T13:42:41.309Z,100563.34
2023-01-17T13:45:18.172Z,100571.91
2023-01-17T13:47:45.745Z,100585.03
2023-01-17T13:50:36.240Z,100580.84
2023-01-17T13:53:28.968Z,100589.56
2023-01-17T13:56:19.857Z,100589.69
2023-01-17T13:58:50.660Z,100606.31
2023-01-17T14:01:22.144Z,100597.31
2023-01-17T14:03:50.305Z,100594.81
2023-01-17T14:06:36.450Z,100588.59
2023-01-17T14:09:13.107Z,100579.78
2023-01-17T14:11:56.474Z,100575.44
2023-01-17T14:14:42.923Z,100575.25
2023-01-17T14:17:16.316Z,100569.16
2023-01-17T14:19:51.078Z,100582.41
2023-01-17T14:22:18.595Z,100578.84
2023-01-17T14:25:20.095Z,100580.56
2023-01-17T14:27:54.551Z,100581.41
2023-01-17T14:30:32.993Z,100569.28
2023-01-17T14:33:04.853Z,100574.47
2023-01-17T14:35:38.713Z,100572.81
2023-01-17T14:38:23.118Z,100583.19
2023-01-17T14:40:57.976Z,100569.38
2023-01-17T14:43:28.765Z,100572.91
2023-01-17T14:46:02.473Z,100578.22
2023-01-17T14:48:31.073Z,100573.03
2023-01-17T14:51:02.135Z,100582.81
2023-01-17T14:53:34.000Z,100569.78
2023-01-17T14:56:15.824Z,100590.56
2023-01-17T14:58:46.578Z,100578.38
2023-01-17T15:01:18.902Z,100572.19
2023-01-17T15:03:52.883Z,100579.19
2023-01-17T15:06:34.463Z,100571.41
2023-01-17T15:09:09.390Z,100569.66
2023-01-17T15:11:37.614Z,100572.34
2023-01-17T15:14:07.125Z,100573.31
2023-01-17T15:16:36.562Z,100571.31
2023-01-17T15:19:12.820Z,100580.94
2023-01-17T15:21:43.364Z,100584.53
2023-01-17T15:24:25.452Z,100578.56
2023-01-17T15:26:53.382Z,100577.66
2023-01-17T15:29:26.769Z,100584.66
2023-01-17T15:32:00.498Z,100590.53
2023-01-17T15:34:44.437Z,100599.53
2023-01-17T15:37:23.250Z,100594.22
2023-01-17T15:39:50.871Z,100584.94
2023-01-17T15:42:25.853Z,100595.34
2023-01-17T15:44:59.859Z,100573.63
2023-01-17T15:47:37.648Z,100566.00
2023-01-17T15:50:20.539Z,100590.41
2023-01-17T15:52:57.779Z,100605.34
2023-01-17T15:55:34.837Z,100601.06
2023-01-17T15:58:04.133Z,100593.25
2023-01-17T16:00:39.338Z,100588.09
2023-01-17T16:03:26.602Z,100591.50
2023-01-17T16:05:57.776Z,100598.50
2023-01-17T16:08:31.280Z,100601.16
2023-01-17T16:11:02.491Z,100611.56
2023-01-17T16:13:43.439Z,100598.44
2023-01-17T16:16:16.220Z,100594.97
2023-01-17T16:18:46.638Z,100584.69
2023-01-17T16:21:23.932Z,100582.00
2023-01-17T16:23:52.219Z,100588.09
2023-01-17T16:26:20.042Z,100572.50
2023-01-17T16:28:48.121Z,100574.28
2023-01-17T16:31:16.730Z,100569.25
2023-01-17T16:33:52.326Z,100582.28
2023-01-17T16:36:21.300Z,100580.50
2023-01-17T16:38:50.248Z,100576.91
2023-01-17T16:41:18.469Z,100564.84
2023-01-17T16:43:46.094Z,100567.53
2023-01-17T16:46:16.902Z,100567.56
2023-01-17T16:48:46.747Z,100576.25
2023-01-17T16:51:14.392Z,100566.00
2023-01-17T16:53:42.034Z,100579.09
2023-01-17T16:56:16.961Z,100581.63
2023-01-17T16:58:44.904Z,100586.00
2023-01-17T17:01:17.109Z,100579.97
2023-01-17T17:03:49.017Z,100575.63
2023-01-17T17:06:19.671Z,100581.06
2023-01-17T17:08:47.787Z,100582.03
2023-01-17T17:11:21.455Z,100587.22
2023-01-17T17:13:50.800Z,100581.28
2023-01-17T17:16:21.862Z,100577.97
2023-01-17T17:18:58.567Z,100571.00
2023-01-17T17:21:27.492Z,100572.72
2023-01-17T17:24:03.468Z,100572.06
2023-01-17T17:26:37.305Z,100581.56
2023-01-17T17:29:10.549Z,100572.13
2023-01-17T17:31:41.169Z,100585.22
2023-01-17T17:34:13.607Z,100592.22
2023-01-17T17:36:42.148Z,100590.44
2023-01-17T17:39:17.157Z,100595.56
2023-01-17T17:41:45.968Z,100591.38
2023-01-17T17:44:13.702Z,100585.28
2023-01-17T17:46:43.005Z,100579.06
2023-01-17T17:49:10.625Z,100575.47
2023-01-17T17:51:39.862Z,100576.25
2023-01-17T17:54:10.299Z,100578.94
2023-01-17T17:56:38.793Z,100584.09
2023-01-17T17:59:09.101Z,100576.13
2023-01-17T18:01:38.397Z,100583.06
2023-01-17T18:04:09.409Z,100586.53
2023-01-17T18:06:38.671Z,100583.09
2023-01-17T18:09:08.137Z,100583.94
2023-01-17T18:11:40.616Z,100576.06
2023-01-17T18:14:12.764Z,100574.53
2023-01-17T18:16:43.252Z,100582.44
2023-01-17T18:19:19.769Z,100577.16
2023-01-17T18:21:58.201Z,100597.22
2023-01-17T18:24:27.649Z,100573.81
2023-01-17T18:26:57.668Z,100589.28
2023-01-17T18:29:29.167Z,100575.41
2023-01-17T18:31:56.996Z,100585.97
2023-01-17T18:34:31.504Z,100583.28
2023-01-17T18:37:14.093Z,100584.31
2023-01-17T18:39:42.830Z,100578.34
2023-01-17T18:42:11.962Z,100586.97
2023-01-17T18:44:39.522Z,100573.09
2023-01-17T18:47:07.187Z,100569.78
2023-01-17T18:49:35.147Z,100580.25
2023-01-17T18:52:03.113Z,100590.72
2023-01-17T18:54:32.004Z,100581.16
2023-01-17T18:56:59.612Z,100581.03
2023-01-17T18:59:28.055Z,100580.16
2023-01-17T19:01:56.035Z,100580.25
2023-01-17T19:04:23.633Z,100583.72
2023-01-17T19:06:51.309Z,100577.63
2023-01-17T19:09:19.524Z,100561.97
2023-01-17T19:11:47.679Z,100572.44
2023-01-17T19:14:15.905Z,100577.75
2023-01-17T19:16:44.253Z,100577.13
2023-01-17T19:19:15.101Z,100591.03
2023-01-17T19:21:43.651Z,100600.66
2023-01-17T19:24:13.330Z,100597.97
2023-01-17T19:26:42.089Z,100590.13
2023-01-17T19:29:10.478Z,100591.03
2023-01-17T19:31:42.977Z,100575.44
2023-01-17T19:34:14.288Z,100581.53
2023-01-17T19:36:42.476Z,100574.66
2023-01-17T19:39:10.615Z,100580.84
2023-01-17T19:41:44.748Z,100574.72
2023-01-17T19:44:14.040Z,100569.53
2023-01-17T19:46:41.679Z,100573.00
2023-01-17T19:49:09.875Z,100568.81
2023-01-17T19:51:37.543Z,100583.50
2023-01-17T19:54:06.618Z,100578.22
2023-01-17T19:56:34.532Z,100574.84
2023-01-17T19:59:02.483Z,100583.50
2023-01-17T20:01:33.400Z,100578.22
2023-01-17T20:04:03.252Z,100572.16
2023-01-17T20:06:35.404Z,100585.97
2023-01-17T20:09:04.509Z,100587.78
2023-01-17T20:11:33.252Z,100587.69
2023-01-17T20:14:01.340Z,100594.63
2023-01-17T20:16:31.168Z,100595.47
2023-01-17T20:18:59.572Z,100603.13
2023-01-17T20:21:29.139Z,100591.75
2023-01-17T20:23:58.698Z,100609.97
2023-01-17T20:26:34.531Z,100606.25
2023-01-17T20:29:10.373Z,100603.69
2023-01-17T20:31:40.546Z,100616.72
2023-01-17T20:34:10.823Z,100611.50
2023-01-17T20:36:40.597Z,100610.50
2023-01-17T20:39:09.353Z,100623.44
2023-01-17T20:41:42.259Z,100616.53
2023-01-17T20:44:15.520Z,100629.63
2023-01-17T20:46:43.507Z,100619.16
2023-01-17T20:49:16.913Z,100617.38
2023-01-17T20:51:46.218Z,100621.72
2023-01-17T20:54:30.656Z,100628.72
2023-01-17T20:56:58.264Z,100614.81
2023-01-17T20:59:25.830Z,100626.03
2023-01-17T21:01:53.538Z,100619.06
2023-01-17T21:04:25.832Z,100616.53
2023-01-17T21:06:53.563Z,100602.53
2023-01-17T21:09:22.068Z,100599.75
2023-01-17T21:11:50.566Z,100600.63
2023-01-17T21:14:18.224Z,100601.63
2023-01-17T21:16:46.032Z,100599.84
2023-01-17T21:19:15.038Z,100612.88
2023-01-17T21:21:42.575Z,100610.19
2023-01-17T21:24:10.228Z,100611.94
2023-01-17T21:26:38.982Z,100610.00
2023-01-17T21:29:07.220Z,100619.75
2023-01-17T21:31:36.725Z,100604.69
2023-01-17T21:34:07.315Z,100605.53
2023-01-17T21:36:37.467Z,100609.09
2023-01-17T21:39:13.107Z,100605.34
2023-01-17T21:41:41.540Z,100609.69
2023-01-17T21:44:14.778Z,100611.50
2023-01-17T21:46:42.828Z,100606.41
2023-01-17T21:49:12.017Z,100608.03
2023-01-17T21:51:52.761Z,100603.50
2023-01-17T21:54:41.503Z,100606.97
2023-01-17T22:01:17.914Z,100622.31
2023-01-17T22:03:49.872Z,100623.16
2023-01-17T22:06:18.692Z,100615.31
2023-01-17T22:08:46.646Z,100633.66
2023-01-17T22:11:16.819Z,100626.63
2023-01-17T22:13:45.493Z,100620.47
2023-01-17T22:16:15.868Z,100626.47
2023-01-17T22:18:45.077Z,100633.38
2023-01-17T22:21:15.659Z,100628.13
2023-01-17T22:23:48.743Z,100630.56
2023-01-17T22:26:16.673Z,100621.94
2023-01-17T22:28:44.442Z,100622.63
2023-01-17T22:31:21.524Z,100623.28
2023-01-17T22:34:01.984Z,100607.63
2023-01-17T22:36:32.223Z,100623.16
2023-01-17T22:39:00.535Z,100624.94
2023-01-17T22:41:34.726Z,100623.00
2023-01-17T22:44:02.959Z,100616.22
2023-01-17T22:46:32.684Z,100613.66
2023-01-17T22:49:00.457Z,100609.19
2023-01-17T22:51:29.405Z,100608.47
2023-01-17T22:53:59.252Z,100616.41
2023-01-17T22:56:29.554Z,100606.84
2023-01-17T22:59:03.267Z,100600.69
2023-01-17T23:01:33.008Z,100599.03
2023-01-17T23:04:02.937Z,100603.31
2023-01-17T23:06:38.184Z,100589.47
2023-01-17T23:09:13.428Z,100597.06
2023-01-17T23:11:43.305Z,100591.81
2023-01-17T23:14:19.177Z,100595.22
2023-01-17T23:17:07.147Z,100590.03
2023-01-17T23:19:38.074Z,100598.75
2023-01-17T23:22:21.522Z,100606.69
2023-01-17T23:24:59.043Z,100591.69
2023-01-17T23:27:52.166Z,100587.31
2023-01-17T23:30:40.597Z,100586.31
2023-01-17T23:33:10.633Z,100591.59
2023-01-17T23:35:42.072Z,100596.84
2023-01-17T23:38:29.261Z,100596.72
2023-01-17T23:41:25.150Z,100593.31
2023-01-17T23:43:54.002Z,100591.41
2023-01-17T23:46:24.586Z,100601.81
2023-01-17T23:48:52.730Z,100602.56
2023-01-17T23:51:20.740Z,100610.34
2023-01-17T23:53:55.250Z,100613.03
2023-01-17T23:56:24.853Z,100608.50
2023-01-17T23:58:52.428Z,100600.75
